Time;durP1;ratioP1;P1;durP2;ratioP2;P2;SDS_P1;SDS_P2;PMS_P1;PMS_P2;Temp;Humidity;BMP_temperature;BMP_pressure;BME280_temperature;BME280_humidity;BME280_pressure;Samples;Min_cycle;Max_cycle;Signal;HPM_P1;HPM_P2
2023/12/11 00:01:48;;;;;;;4.75;1.70;;;;;;;16.31;60.40;99633.41;10409153;28;20025;-61
2023/12/11 00:06:48;;;;;;;5.30;1.80;;;;;;;16.28;61.70;99632.16;10409851;28;20022;-61
2023/12/11 00:11:48;;;;;;;5.30;1.48;;;;;;;16.29;61.72;99630.28;10409613;28;20406;-61
2023/12/11 00:16:49;;;;;;;6.22;1.70;;;;;;;16.28;61.84;99620.66;10409690;28;20026;-61
2023/12/11 00:21:49;;;;;;;3.28;1.30;;;;;;;16.26;61.12;99615.63;10408504;28;20021;-61
2023/12/11 00:26:49;;;;;;;3.60;1.45;;;;;;;16.26;61.97;99620.19;10409222;28;20037;-61
2023/12/11 00:31:50;;;;;;;5.15;1.70;;;;;;;16.25;61.75;99624.75;10409229;28;20065;-61
2023/12/11 00:36:50;;;;;;;2.85;1.60;;;;;;;16.23;62.13;99629.63;10407556;28;20541;-60
2023/12/11 00:41:51;;;;;;;3.78;2.45;;;;;;;16.23;60.76;99618.13;10409022;28;20025;-61
2023/12/11 00:46:52;;;;;;;4.85;1.85;;;;;;;16.21;61.00;99625.66;10408492;28;20032;-61
2023/12/11 00:51:52;;;;;;;4.03;1.70;;;;;;;16.20;61.63;99624.84;10408925;28;20025;-60
2023/12/11 00:56:53;;;;;;;2.38;1.33;;;;;;;16.20;61.33;99622.19;10408616;28;20443;-62
2023/12/11 01:01:53;;;;;;;8.32;1.95;;;;;;;16.19;61.36;99619.81;10408809;28;20100;-61
2023/12/11 01:06:54;;;;;;;2.83;1.58;;;;;;;16.17;60.81;99611.31;10408606;28;20059;-61
2023/12/11 01:11:54;;;;;;;4.80;2.15;;;;;;;16.15;61.46;99606.28;10408485;28;20030;-61
2023/12/11 01:16:55;;;;;;;4.80;1.52;;;;;;;16.15;62.12;99600.13;10408286;28;20029;-61
2023/12/11 01:21:55;;;;;;;4.80;1.75;;;;;;;16.13;61.54;99592.44;10413956;28;20108;-61
2023/12/11 01:26:55;;;;;;;4.80;1.58;;;;;;;16.14;60.92;99590.53;10416189;28;20053;-61
2023/12/11 01:31:57;;;;;;;3.78;1.33;;;;;;;16.12;62.01;99584.72;10415987;28;20493;-61
2023/12/11 01:36:57;;;;;;;5.97;1.58;;;;;;;16.11;61.52;99567.88;10415684;28;20032;-61
2023/12/11 01:41:58;;;;;;;3.47;1.48;;;;;;;16.10;60.57;99566.28;10416259;28;20032;-61
2023/12/11 01:46:59;;;;;;;3.53;1.20;;;;;;;16.09;61.56;99564.69;10415327;28;20027;-61
2023/12/11 01:51:59;;;;;;;3.30;1.35;;;;;;;16.07;61.66;99558.88;10415318;28;20025;-61
2023/12/11 01:56:59;;;;;;;4.32;1.52;;;;;;;16.06;60.51;99547.38;10413869;28;20061;-60
2023/12/11 02:02:02;;;;;;;5.35;1.27;;;;;;;16.06;61.41;99549.28;10415041;28;20026;-61
2023/12/11 02:07:03;;;;;;;5.05;1.38;;;;;;;16.05;61.59;99545.03;10413753;28;20029;-61
2023/12/11 02:12:05;;;;;;;4.47;1.70;;;;;;;16.05;60.90;99537.00;10414949;28;20060;-61
2023/12/11 02:17:08;;;;;;;5.95;1.90;;;;;;;16.05;60.91;99529.00;10414494;28;20029;-61
2023/12/11 02:22:09;;;;;;;5.18;2.22;;;;;;;16.03;60.63;99528.50;10414481;28;20369;-61
2023/12/11 02:27:10;;;;;;;4.85;1.90;;;;;;;16.00;61.31;99521.91;10412943;28;20388;-61
2023/12/11 02:32:10;;;;;;;4.25;1.30;;;;;;;16.01;61.21;99507.44;10413191;28;20049;-61
2023/12/11 02:37:11;;;;;;;4.85;1.35;;;;;;;16.01;60.90;99503.97;10413616;28;20032;-61
2023/12/11 02:42:11;;;;;;;3.25;1.83;;;;;;;15.99;61.36;99492.81;10413816;28;20021;-61
2023/12/11 02:47:12;;;;;;;4.85;1.38;;;;;;;15.98;60.36;99494.69;10413271;28;20116;-61
2023/12/11 02:52:12;;;;;;;3.78;1.40;;;;;;;15.98;60.60;99489.34;10412063;28;20033;-61
2023/12/11 02:57:12;;;;;;;4.35;1.40;;;;;;;15.99;60.49;99482.09;10411383;28;20034;-61
2023/12/11 03:02:13;;;;;;;4.72;1.73;;;;;;;15.96;60.56;99478.13;10411884;28;20036;-61
2023/12/11 03:07:15;;;;;;;5.72;1.95;;;;;;;15.95;60.95;99468.53;10412519;28;20045;-61
2023/12/11 03:12:15;;;;;;;5.45;1.55;;;;;;;15.95;60.90;99478.44;10412609;28;20036;-61
2023/12/11 03:17:15;;;;;;;3.03;1.05;;;;;;;15.94;61.68;99450.94;10412294;28;20040;-60
2023/12/11 03:22:16;;;;;;;3.45;1.27;;;;;;;15.92;61.88;99431.75;10411926;28;20032;-61
2023/12/11 03:27:17;;;;;;;3.15;1.30;;;;;;;15.90;61.03;99433.94;10411890;28;20033;-62
2023/12/11 03:32:17;;;;;;;3.85;1.20;;;;;;;15.91;60.90;99438.19;10409778;28;20072;-61
2023/12/11 03:37:17;;;;;;;3.88;1.83;;;;;;;15.94;61.52;99444.78;10410214;28;20048;-61
2023/12/11 03:42:18;;;;;;;4.13;1.23;;;;;;;16.13;60.06;99423.97;10410755;28;20026;-61
2023/12/11 03:47:18;;;;;;;3.75;1.23;;;;;;;16.52;59.66;99427.66;10411022;28;20057;-62
2023/12/11 03:52:19;;;;;;;2.70;1.23;;;;;;;17.01;58.52;99431.81;10410628;28;20028;-61
2023/12/11 03:57:19;;;;;;;4.45;1.55;;;;;;;17.42;57.54;99422.47;10410740;28;20109;-61
2023/12/11 04:02:19;;;;;;;4.75;1.67;;;;;;;17.69;55.26;99424.00;10410061;28;20021;-61
2023/12/11 04:07:20;;;;;;;4.13;1.20;;;;;;;17.92;54.79;99419.19;10410275;28;20034;-61
2023/12/11 04:12:20;;;;;;;3.90;1.38;;;;;;;18.10;55.34;99415.31;10409740;28;20033;-61
2023/12/11 04:17:21;;;;;;;5.93;1.33;;;;;;;18.22;54.50;99410.03;10409747;28;20155;-61
2023/12/11 04:22:22;;;;;;;3.08;1.75;;;;;;;18.33;54.67;99410.44;10408130;28;20078;-61
2023/12/11 04:27:22;;;;;;;7.80;1.73;;;;;;;18.44;53.67;99387.47;10410082;28;20021;-61
2023/12/11 04:32:22;;;;;;;5.25;1.55;;;;;;;18.49;54.02;99381.94;10408384;28;20092;-61
2023/12/11 04:37:23;;;;;;;3.42;1.42;;;;;;;18.59;53.79;99384.22;10408499;28;20116;-61
2023/12/11 04:42:23;;;;;;;5.07;1.60;;;;;;;18.65;53.73;99374.09;10407930;28;20034;-60
2023/12/11 04:47:23;;;;;;;5.32;1.60;;;;;;;18.65;54.05;99382.16;10408945;28;20061;-61
2023/12/11 04:52:24;;;;;;;4.97;1.42;;;;;;;18.73;54.43;99386.69;10407876;28;20029;-60
2023/12/11 04:57:24;;;;;;;6.00;1.90;;;;;;;18.68;54.37;99386.88;10408558;28;20124;-60
2023/12/11 05:02:25;;;;;;;3.28;1.38;;;;;;;18.66;54.61;99375.66;10408381;28;20074;-60
2023/12/11 05:07:25;;;;;;;4.40;1.23;;;;;;;18.62;53.84;99388.94;10408851;28;20029;-60
2023/12/11 05:12:25;;;;;;;3.75;1.30;;;;;;;18.52;54.63;99380.50;10408305;28;20155;-60
2023/12/11 05:17:26;;;;;;;4.28;1.45;;;;;;;18.49;53.94;99386.53;10408140;28;20017;-61
2023/12/11 05:22:26;;;;;;;5.33;1.77;;;;;;;18.47;54.49;99375.31;10406602;28;20029;-59
2023/12/11 05:27:26;;;;;;;5.10;1.80;;;;;;;18.42;55.02;99370.94;10407040;28;20296;-58
2023/12/11 05:32:27;;;;;;;3.88;1.13;;;;;;;18.43;55.57;99369.81;10401081;28;20123;-60
2023/12/11 05:37:27;;;;;;;4.70;1.92;;;;;;;18.43;54.44;99372.50;10399211;28;20095;-60
2023/12/11 05:42:27;;;;;;;12.77;2.10;;;;;;;18.39;54.84;99368.91;10404199;28;20021;-60
2023/12/11 05:47:28;;;;;;;15.33;2.40;;;;;;;18.28;55.98;99362.34;10396748;28;20079;-60
2023/12/11 05:52:28;;;;;;;13.32;2.35;;;;;;;18.29;55.64;99350.50;10404043;28;20779;-58
2023/12/11 05:57:29;;;;;;;13.23;2.95;;;;;;;18.24;56.81;99353.38;10404711;28;20621;-60
2023/12/11 06:02:29;;;;;;;17.33;2.78;;;;;;;18.19;56.07;99345.50;10403921;28;20017;-59
2023/12/11 06:07:29;;;;;;;10.50;3.30;;;;;;;18.09;57.46;99342.09;10407558;28;20151;-60
2023/12/11 06:12:30;;;;;;;15.52;2.85;;;;;;;18.28;55.85;99338.97;10410045;28;20021;-59
2023/12/11 06:17:30;;;;;;;20.83;3.80;;;;;;;18.33;55.87;99346.81;10405196;28;20065;-60
2023/12/11 06:22:30;;;;;;;20.08;4.10;;;;;;;18.27;57.35;99355.41;10411082;28;20515;-58
2023/12/11 06:27:31;;;;;;;10.45;2.20;;;;;;;18.19;57.09;99340.94;10409798;28;20396;-57
2023/12/11 06:32:31;;;;;;;11.45;3.30;;;;;;;18.15;56.53;99342.72;10410300;28;20443;-58
2023/12/11 06:37:31;;;;;;;14.97;3.27;;;;;;;17.96;57.30;99347.69;10410451;28;20488;-55
2023/12/11 06:42:36;;;;;;;16.25;3.15;;;;;;;18.00;56.57;99341.38;10409522;28;20614;-56
2023/12/11 06:47:36;;;;;;;17.38;3.20;;;;;;;18.04;56.60;99344.97;10409583;28;20061;-55
2023/12/11 06:52:37;;;;;;;19.63;4.05;;;;;;;18.11;57.45;99350.63;10407927;28;20156;-54
2023/12/11 06:57:37;;;;;;;23.98;5.43;;;;;;;18.00;58.29;99348.66;10407089;28;20057;-56
2023/12/11 07:02:38;;;;;;;28.20;5.80;;;;;;;17.96;58.42;99339.66;10398609;28;20032;-56
2023/12/11 07:07:38;;;;;;;39.50;5.78;;;;;;;18.00;58.26;99344.06;10411971;28;20032;-58
2023/12/11 07:12:42;;;;;;;35.65;7.10;;;;;;;18.03;58.31;99337.25;10408577;28;20461;-56
2023/12/11 07:17:42;;;;;;;32.00;7.32;;;;;;;17.98;58.27;99343.59;10407459;28;20025;-58
2023/12/11 07:22:45;;;;;;;41.75;7.53;;;;;;;17.93;57.95;99349.13;10408712;28;20120;-57
2023/12/11 07:27:46;;;;;;;25.98;5.35;;;;;;;17.84;58.97;99377.88;10409063;28;20086;-59
2023/12/11 07:32:47;;;;;;;30.75;6.95;;;;;;;17.71;58.62;99373.53;10406805;28;20086;-58
2023/12/11 07:37:47;;;;;;;26.25;5.13;;;;;;;17.68;60.03;99387.56;10408332;28;20432;-54
2023/12/11 07:42:47;;;;;;;27.73;6.03;;;;;;;17.68;59.41;99377.63;10406711;28;20485;-59
2023/12/11 07:47:48;;;;;;;31.45;5.03;;;;;;;17.70;59.36;99388.84;10403224;28;20418;-58
2023/12/11 07:52:48;;;;;;;14.43;5.25;;;;;;;17.69;58.30;99389.94;10406876;28;20465;-59
2023/12/11 07:57:48;;;;;;;17.58;3.88;;;;;;;17.66;59.97;99411.22;10408009;28;20087;-59
2023/12/11 08:02:49;;;;;;;21.55;4.95;;;;;;;17.65;59.66;99410.44;10406889;28;20026;-58
2023/12/11 08:07:49;;;;;;;17.42;3.90;;;;;;;17.65;59.64;99417.69;10403979;28;20372;-57
2023/12/11 08:12:51;;;;;;;22.85;4.88;;;;;;;17.65;59.12;99458.69;10406441;28;20374;-58
2023/12/11 08:17:52;;;;;;;14.98;4.32;;;;;;;17.69;59.25;99466.91;10404989;28;20033;-58
2023/12/11 08:22:52;;;;;;;15.07;3.28;;;;;;;17.70;60.21;99476.50;10406672;28;20364;-58
2023/12/11 08:27:52;;;;;;;12.80;3.40;;;;;;;17.70;57.95;99477.28;10407238;28;20365;-59
2023/12/11 08:32:53;;;;;;;20.85;4.32;;;;;;;17.79;57.89;99496.06;10406540;28;20488;-58
2023/12/11 08:37:53;;;;;;;11.80;3.70;;;;;;;17.77;58.50;99504.41;10407056;28;20373;-58
2023/12/11 08:42:53;;;;;;;16.98;5.28;;;;;;;17.75;59.48;99529.94;10405835;28;20287;-59
2023/12/11 08:47:54;;;;;;;16.17;4.57;;;;;;;17.81;58.84;99540.19;10404593;28;20036;-59
2023/12/11 08:52:54;;;;;;;11.55;3.13;;;;;;;17.75;58.01;99564.81;10384447;28;20018;-58
2023/12/11 08:57:55;;;;;;;18.77;3.80;;;;;;;17.65;59.90;99565.13;10376707;28;20457;-58
2023/12/11 09:02:55;;;;;;;19.77;3.58;;;;;;;17.65;58.88;99559.75;10363669;28;20040;-57
2023/12/11 09:07:55;;;;;;;14.82;3.22;;;;;;;17.63;60.05;99580.72;10399615;28;20025;-58
2023/12/11 09:12:56;;;;;;;12.88;4.55;;;;;;;17.65;59.63;99598.06;10397547;28;20021;-57
2023/12/11 09:17:56;;;;;;;15.30;2.95;;;;;;;17.64;58.76;99606.41;10404371;28;20051;-57
2023/12/11 09:22:57;;;;;;;25.63;4.25;;;;;;;17.59;60.02;99614.63;10401909;28;20020;-55
2023/12/11 09:27:57;;;;;;;11.63;3.55;;;;;;;17.62;59.46;99625.50;10404385;28;20033;-58
2023/12/11 09:32:58;;;;;;;24.23;3.13;;;;;;;17.56;59.21;99634.03;10404838;28;20132;-57
2023/12/11 09:37:58;;;;;;;16.33;3.60;;;;;;;17.56;59.71;99648.22;10398885;28;20445;-62
2023/12/11 09:43:00;;;;;;;13.15;3.05;;;;;;;17.60;58.52;99669.81;10404461;28;20086;-61
2023/12/11 09:48:01;;;;;;;14.70;2.95;;;;;;;17.61;59.29;99688.25;10429625;28;20034;-60
2023/12/11 09:53:02;;;;;;;11.35;2.78;;;;;;;17.56;58.35;99704.50;10411795;28;20618;-60
2023/12/11 09:58:03;;;;;;;15.85;2.72;;;;;;;17.51;59.46;99708.09;10412457;28;20041;-58
2023/12/11 10:03:05;;;;;;;11.40;3.42;;;;;;;17.48;58.82;99735.53;10411777;28;20104;-60
2023/12/11 10:08:05;;;;;;;14.20;3.80;;;;;;;17.48;59.48;99750.81;10413211;28;20033;-59
2023/12/11 10:13:06;;;;;;;8.55;2.45;;;;;;;17.53;58.43;99758.72;10412731;28;20387;-58
2023/12/11 10:18:12;;;;;;;8.45;2.35;;;;;;;17.54;58.33;99765.66;10412856;28;20029;-59
2023/12/11 10:23:16;;;;;;;8.43;2.88;;;;;;;17.59;57.76;99776.22;10411241;28;20036;-60
2023/12/11 10:28:19;;;;;;;10.45;2.30;;;;;;;17.51;58.92;99793.84;10411689;28;20627;-61
2023/12/11 10:33:20;;;;;;;9.75;1.85;;;;;;;17.63;59.27;99811.25;10404491;28;20174;-58
2023/12/11 10:38:25;;;;;;;5.65;2.03;;;;;;;17.67;59.04;99815.69;10402676;28;20029;-58
2023/12/11 10:43:26;;;;;;;9.70;2.40;;;;;;;17.63;59.68;99822.75;10407961;28;20071;-56
2023/12/11 10:48:26;;;;;;;11.00;1.70;;;;;;;17.64;59.71;99836.94;10409759;28;20026;-60
2023/12/11 10:53:26;;;;;;;11.50;2.72;;;;;;;17.66;60.17;99840.91;10408482;28;20115;-60
2023/12/11 10:58:27;;;;;;;7.72;1.95;;;;;;;17.66;58.85;99843.59;10410266;28;20025;-58
2023/12/11 11:03:30;;;;;;;11.43;2.97;;;;;;;17.64;59.41;99845.81;10400859;28;20036;-57
2023/12/11 11:08:55;;;;;;;16.33;3.35;;;;;;;17.66;59.30;99858.91;10408442;28;20246;-61
2023/12/11 11:14:50;;;;;;;11.65;1.85;;;;;;;17.62;60.58;99882.03;10411995;28;20026;-63
2023/12/11 11:20:12;;;;;;;5.82;1.73;;;;;;;17.53;60.38;99880.13;10410922;28;20393;-55
2023/12/11 11:25:27;;;;;;;5.72;1.77;;;;;;;17.54;60.44;99891.66;10396361;28;20025;-60
2023/12/11 11:30:44;;;;;;;5.47;1.80;;;;;;;17.66;58.78;99896.44;10406461;28;20049;-57
2023/12/11 11:35:54;;;;;;;7.22;1.55;;;;;;;17.75;59.53;99892.69;10410630;28;20065;-54
2023/12/11 11:40:54;;;;;;;6.35;2.35;;;;;;;17.77;58.59;99898.56;10408727;28;20033;-59
2023/12/11 11:45:55;;;;;;;7.57;1.37;;;;;;;17.68;58.28;99907.63;10407257;28;20037;-58
2023/12/11 11:50:56;;;;;;;5.53;1.75;;;;;;;17.98;57.40;99925.59;10408756;28;20363;-59
2023/12/11 11:56:00;;;;;;;5.05;1.80;;;;;;;17.76;57.35;99931.84;10405874;28;20033;-55
2023/12/11 12:01:04;;;;;;;7.50;2.03;;;;;;;17.94;56.33;99946.09;10404413;28;20041;-58
2023/12/11 12:06:05;;;;;;;13.55;2.63;;;;;;;18.11;57.21;99938.13;10405444;28;20021;-59
2023/12/11 12:11:05;;;;;;;8.40;2.05;;;;;;;18.18;56.88;99937.66;10407657;28;20018;-58
2023/12/11 12:16:06;;;;;;;8.88;2.22;;;;;;;18.20;57.99;99942.72;10376823;28;20449;-57
2023/12/11 12:21:07;;;;;;;18.52;2.63;;;;;;;18.22;58.01;99954.69;10407700;28;20021;-56
2023/12/11 12:26:08;;;;;;;10.25;2.53;;;;;;;18.25;57.71;99947.94;10407778;28;20040;-56
2023/12/11 12:31:08;;;;;;;12.17;3.40;;;;;;;18.21;58.92;99960.38;10407484;28;20056;-56
2023/12/11 12:36:09;;;;;;;12.23;2.55;;;;;;;18.27;57.60;99970.69;10407929;28;20329;-57
2023/12/11 12:41:11;;;;;;;12.82;3.88;;;;;;;18.03;58.98;99970.28;10407076;28;20057;-56
2023/12/11 12:46:11;;;;;;;12.57;2.00;;;;;;;18.15;57.65;99983.91;10422132;28;20032;-56
2023/12/11 12:51:11;;;;;;;8.52;2.00;;;;;;;18.23;57.88;99993.06;10408209;28;20029;-58
2023/12/11 12:56:19;;;;;;;11.93;2.80;;;;;;;18.16;57.14;100008.84;10406991;28;20076;-57
2023/12/11 13:01:19;;;;;;;10.23;2.22;;;;;;;18.23;58.08;100006.47;10407133;28;20435;-57
2023/12/11 13:06:26;;;;;;;10.03;2.27;;;;;;;18.17;58.05;100011.22;10407349;28;20031;-57
2023/12/11 13:11:45;;;;;;;9.38;2.28;;;;;;;18.14;57.89;100019.09;10403259;28;20295;-58
2023/12/11 13:16:47;;;;;;;9.65;2.35;;;;;;;18.22;58.58;100012.94;10408114;28;20026;-58
2023/12/11 13:21:47;;;;;;;9.18;1.95;;;;;;;18.18;59.26;100031.56;10415620;28;20075;-56
2023/12/11 13:26:48;;;;;;;11.50;2.15;;;;;;;18.18;58.12;100028.09;10400438;28;20029;-57
2023/12/11 13:31:49;;;;;;;10.77;2.40;;;;;;;18.33;58.46;100033.03;10400370;28;20038;-57
2023/12/11 13:36:49;;;;;;;11.23;2.20;;;;;;;18.28;58.84;100033.19;10415051;28;20664;-56
2023/12/11 13:41:49;;;;;;;10.93;2.13;;;;;;;18.28;57.77;100039.34;10413851;28;20526;-57
2023/12/11 13:46:49;;;;;;;6.55;2.40;;;;;;;18.34;57.78;100050.72;10414691;28;20280;-58
2023/12/11 13:51:50;;;;;;;8.83;1.93;;;;;;;18.31;58.90;100062.09;10414991;28;20030;-55
2023/12/11 13:56:50;;;;;;;10.10;2.60;;;;;;;18.32;58.28;100069.81;10413090;28;20332;-57
2023/12/11 14:01:51;;;;;;;9.83;2.20;;;;;;;18.20;59.10;100074.19;10414210;28;20334;-58
2023/12/11 14:06:52;;;;;;;14.15;3.20;;;;;;;18.35;58.34;100081.81;10414381;28;20288;-59
2023/12/11 14:11:58;;;;;;;14.23;2.78;;;;;;;18.27;58.71;100094.13;10412759;28;20460;-56
2023/12/11 14:16:58;;;;;;;18.45;3.20;;;;;;;18.80;58.26;100097.81;10401909;28;20091;-56
2023/12/11 14:21:59;;;;;;;16.27;3.67;;;;;;;18.55;59.36;100107.34;10412395;28;20029;-57
2023/12/11 14:26:59;;;;;;;24.23;3.37;;;;;;;18.40;60.04;100113.91;10411670;28;20031;-59
2023/12/11 14:31:59;;;;;;;17.50;3.07;;;;;;;18.29;60.31;100126.81;10403984;28;20775;-56
2023/12/11 14:37:00;;;;;;;13.93;3.30;;;;;;;18.27;61.03;100130.91;10412365;28;20280;-58
2023/12/11 14:42:00;;;;;;;17.20;3.53;;;;;;;18.27;59.93;100149.69;10411494;28;20292;-58
2023/12/11 14:47:00;;;;;;;24.57;3.90;;;;;;;18.39;59.30;100150.72;10412065;28;20288;-57
2023/12/11 14:52:01;;;;;;;23.55;4.15;;;;;;;18.32;61.05;100158.38;10412246;28;20280;-57
2023/12/11 14:57:02;;;;;;;12.95;2.83;;;;;;;18.26;60.22;100172.25;10411503;28;20029;-58
2023/12/11 15:02:03;;;;;;;24.77;3.88;;;;;;;18.24;60.62;100175.25;10412079;28;20030;-57
2023/12/11 15:07:04;;;;;;;29.60;4.85;;;;;;;18.21;60.47;100191.16;10411423;28;20021;-59
2023/12/11 15:12:06;;;;;;;17.48;3.55;;;;;;;18.24;61.13;100177.94;10409947;28;20393;-59
2023/12/11 15:17:06;;;;;;;17.25;4.82;;;;;;;18.22;61.30;100180.09;10410555;28;20412;-59
2023/12/11 15:22:07;;;;;;;17.80;2.80;;;;;;;18.31;60.66;100185.53;10411608;28;20033;-60
2023/12/11 15:27:08;;;;;;;13.65;3.53;;;;;;;18.31;59.68;100186.34;10409243;28;20030;-59
2023/12/11 15:32:09;;;;;;;32.30;5.28;;;;;;;18.27;59.85;100192.63;10409782;28;20044;-59
2023/12/11 15:37:09;;;;;;;18.70;4.43;;;;;;;18.19;61.42;100201.41;10409071;28;20036;-59
2023/12/11 15:42:09;;;;;;;33.63;6.23;;;;;;;18.20;59.60;100208.34;10397973;28;20030;-58
2023/12/11 15:47:10;;;;;;;30.77;4.38;;;;;;;18.26;60.83;100213.31;10395032;28;20311;-58
2023/12/11 15:52:10;;;;;;;33.83;4.97;;;;;;;18.26;61.19;100218.69;10405942;28;20397;-59
2023/12/11 15:57:12;;;;;;;31.15;4.10;;;;;;;18.21;60.84;100220.66;10395503;28;20017;-58
2023/12/11 16:02:12;;;;;;;21.20;4.32;;;;;;;18.32;60.98;100225.50;10382463;28;20021;-58
2023/12/11 16:07:12;;;;;;;20.50;4.43;;;;;;;18.36;61.31;100229.16;10403171;28;20036;-56
2023/12/11 16:12:12;;;;;;;12.23;3.17;;;;;;;18.27;61.60;100233.69;10390382;28;20303;-56
2023/12/11 16:17:13;;;;;;;11.33;2.83;;;;;;;18.27;60.51;100236.34;10397485;28;20292;-56
2023/12/11 16:22:14;;;;;;;14.97;3.30;;;;;;;18.36;60.34;100236.44;10405692;28;20272;-55
2023/12/11 16:27:15;;;;;;;17.85;4.20;;;;;;;18.47;62.75;100243.13;10405090;28;20660;-56
2023/12/11 16:32:16;;;;;;;27.27;4.32;;;;;;;18.58;61.50;100251.72;10401148;28;20086;-57
2023/12/11 16:37:17;;;;;;;10.77;2.95;;;;;;;18.62;61.38;100258.06;10405152;28;20083;-56
2023/12/11 16:42:17;;;;;;;20.17;3.58;;;;;;;18.56;62.25;100257.38;10404895;28;20025;-56
2023/12/11 16:47:18;;;;;;;15.98;3.75;;;;;;;18.49;63.25;100264.31;10401555;28;20503;-54
2023/12/11 16:52:18;;;;;;;24.40;4.80;;;;;;;18.60;62.63;100266.44;10394381;28;20116;-56
2023/12/11 16:57:18;;;;;;;14.05;3.33;;;;;;;18.51;61.70;100273.63;10400296;28;20383;-56
2023/12/11 17:02:19;;;;;;;17.13;3.57;;;;;;;18.46;62.74;100278.31;10383110;28;20029;-55
2023/12/11 17:07:19;;;;;;;19.43;4.03;;;;;;;18.47;62.54;100286.09;10403938;28;20299;-55
2023/12/11 17:12:20;;;;;;;19.98;3.40;;;;;;;18.47;62.07;100286.09;10404272;28;20299;-58
2023/12/11 17:17:20;;;;;;;26.15;4.20;;;;;;;18.33;62.13;100288.81;10402222;28;20071;-58
2023/12/11 17:22:20;;;;;;;13.87;3.43;;;;;;;18.29;61.25;100297.78;10402688;28;20028;-59
2023/12/11 17:27:21;;;;;;;14.35;2.88;;;;;;;18.23;61.21;100304.34;10408150;28;20311;-59
2023/12/11 17:32:21;;;;;;;14.37;3.53;;;;;;;18.20;62.24;100318.38;10405059;28;20119;-58
2023/12/11 17:37:23;;;;;;;13.60;3.20;;;;;;;18.18;62.92;100318.69;10405528;28;20329;-60
2023/12/11 17:42:25;;;;;;;14.82;3.42;;;;;;;18.13;63.03;100326.06;10404532;28;20029;-59
2023/12/11 17:47:26;;;;;;;21.40;3.72;;;;;;;18.14;62.40;100333.00;10405403;28;20017;-60
2023/12/11 17:52:26;;;;;;;14.43;2.90;;;;;;;18.07;61.83;100334.19;10403246;28;20025;-59
2023/12/11 17:57:26;;;;;;;12.53;3.67;;;;;;;17.99;63.19;100334.91;10404871;28;20290;-59
2023/12/11 18:02:27;;;;;;;17.35;3.47;;;;;;;17.94;62.76;100335.03;10407406;28;20021;-60
2023/12/11 18:07:27;;;;;;;12.40;3.10;;;;;;;17.88;62.49;100343.47;10412592;28;20018;-59
2023/12/11 18:12:27;;;;;;;13.20;2.70;;;;;;;17.83;61.71;100342.47;10411248;28;20304;-59
2023/12/11 18:17:28;;;;;;;10.30;2.67;;;;;;;17.79;63.02;100365.63;10410351;28;20755;-58
2023/12/11 18:22:28;;;;;;;13.35;3.20;;;;;;;17.76;63.13;100370.81;10410924;28;20021;-60
2023/12/11 18:27:34;;;;;;;14.87;3.10;;;;;;;17.70;62.39;100374.66;10411358;28;20029;-58
2023/12/11 18:32:34;;;;;;;11.70;2.67;;;;;;;17.64;63.29;100381.16;10409223;28;20308;-60
2023/12/11 18:37:35;;;;;;;20.77;4.37;;;;;;;17.60;64.06;100385.53;10410230;28;20021;-59
2023/12/11 18:42:35;;;;;;;22.00;3.90;;;;;;;17.57;63.82;100384.25;10410032;28;20276;-60
2023/12/11 18:47:35;;;;;;;16.53;2.90;;;;;;;17.59;63.70;100406.19;10410285;28;20288;-58
2023/12/11 18:52:35;;;;;;;11.70;3.37;;;;;;;17.57;63.01;100400.34;10407207;28;20776;-60
2023/12/11 18:57:36;;;;;;;13.63;2.67;;;;;;;17.55;62.36;100402.53;10408071;28;20276;-60
2023/12/11 19:02:36;;;;;;;11.80;3.13;;;;;;;17.49;63.00;100409.84;10409130;28;20362;-60
2023/12/11 19:07:37;;;;;;;11.30;3.50;;;;;;;17.46;63.31;100410.44;10405516;28;20755;-60
2023/12/11 19:12:38;;;;;;;19.13;3.42;;;;;;;17.50;61.60;100413.31;10407646;28;20509;-60
2023/12/11 19:17:38;;;;;;;11.17;2.43;;;;;;;17.46;63.22;100420.38;10407497;28;20221;-61
2023/12/11 19:22:38;;;;;;;7.27;2.03;;;;;;;17.42;62.72;100436.25;10416409;28;20287;-61
2023/12/11 19:27:41;;;;;;;10.75;3.15;;;;;;;17.39;62.19;100436.03;10395378;28;20295;-61
2023/12/11 19:32:41;;;;;;;13.88;2.55;;;;;;;17.30;62.97;100430.56;10404636;28;20135;-60
2023/12/11 19:37:42;;;;;;;11.67;1.90;;;;;;;17.25;64.28;100430.63;10395911;28;20038;-62
2023/12/11 19:42:45;;;;;;;8.82;2.28;;;;;;;17.25;63.57;100447.50;10405094;28;20485;-61
2023/12/11 19:47:45;;;;;;;9.70;2.70;;;;;;;17.23;64.07;100449.69;10404061;28;20048;-60
2023/12/11 19:52:48;;;;;;;10.90;2.23;;;;;;;17.21;63.40;100454.56;10403647;28;20088;-60
2023/12/11 19:57:48;;;;;;;10.70;3.95;;;;;;;17.20;62.99;100449.50;10397977;28;20287;-61
2023/12/11 20:02:49;;;;;;;13.18;2.35;;;;;;;17.17;63.93;100455.44;10407168;28;20013;-61
2023/12/11 20:07:50;;;;;;;20.60;3.22;;;;;;;17.14;65.05;100456.78;10404645;28;20032;-62
2023/12/11 20:12:50;;;;;;;7.38;2.55;;;;;;;17.15;64.58;100461.06;10393722;28;20029;-61
2023/12/11 20:17:51;;;;;;;10.67;2.70;;;;;;;17.14;64.43;100464.03;10384043;28;20496;-61
2023/12/11 20:22:52;;;;;;;6.53;1.77;;;;;;;17.12;65.36;100467.00;10399319;28;20272;-60
2023/12/11 20:27:52;;;;;;;5.65;1.67;;;;;;;17.14;64.52;100469.41;10393632;28;20113;-61
2023/12/11 20:32:53;;;;;;;8.10;2.03;;;;;;;17.15;63.16;100473.66;10409020;28;20053;-60
2023/12/11 20:37:53;;;;;;;6.15;2.20;;;;;;;17.09;64.13;100486.34;10408447;28;20759;-61
2023/12/11 20:42:53;;;;;;;4.27;1.37;;;;;;;17.07;62.36;100482.38;10408131;28;20021;-61
2023/12/11 20:47:53;;;;;;;6.30;1.37;;;;;;;17.02;62.88;100488.59;10407740;28;20288;-59
2023/12/11 20:52:54;;;;;;;5.40;1.83;;;;;;;17.00;63.11;100481.94;10407400;28;20300;-61
2023/12/11 20:57:55;;;;;;;6.32;1.73;;;;;;;16.98;63.51;100492.16;10407708;28;20283;-61
2023/12/11 21:02:55;;;;;;;4.72;1.83;;;;;;;16.96;63.66;100487.09;10407136;28;20040;-61
2023/12/11 21:07:56;;;;;;;4.67;1.97;;;;;;;16.94;63.22;100489.25;10408432;28;20033;-61
2023/12/11 21:12:56;;;;;;;5.45;1.80;;;;;;;16.92;62.28;100499.44;10407818;28;20291;-60
2023/12/11 21:17:57;;;;;;;4.43;1.30;;;;;;;16.90;63.92;100502.41;10408279;28;20030;-60
2023/12/11 21:22:57;;;;;;;4.83;1.50;;;;;;;16.87;63.06;100500.31;10407911;28;20592;-61
2023/12/11 21:27:57;;;;;;;3.55;1.27;;;;;;;16.86;62.98;100514.00;10406964;28;20291;-62
2023/12/11 21:32:58;;;;;;;5.05;1.55;;;;;;;16.84;63.45;100514.28;10407476;28;20145;-61
2023/12/11 21:37:58;;;;;;;6.07;1.52;;;;;;;16.82;63.42;100529.06;10412410;28;20036;-61
2023/12/11 21:42:58;;;;;;;4.13;1.53;;;;;;;16.81;63.81;100533.63;10415300;28;20040;-60
2023/12/11 21:47:59;;;;;;;4.32;1.30;;;;;;;16.78;62.56;100525.34;10415768;28;20782;-61
2023/12/11 21:53:00;;;;;;;3.20;1.30;;;;;;;16.75;63.07;100526.72;10415309;28;20105;-61
2023/12/11 21:58:00;;;;;;;3.70;1.25;;;;;;;16.75;62.56;100533.97;10415349;28;20280;-60
2023/12/11 22:03:00;;;;;;;2.97;1.20;;;;;;;16.74;62.53;100543.09;10414968;28;20022;-61
2023/12/11 22:08:01;;;;;;;3.60;1.60;;;;;;;16.71;62.40;100539.09;10414933;28;20272;-61
2023/12/11 22:13:01;;;;;;;4.27;1.73;;;;;;;16.71;62.16;100540.97;10414312;28;20659;-61
2023/12/11 22:18:01;;;;;;;3.03;1.10;;;;;;;16.68;62.14;100545.00;10414611;28;20284;-61
2023/12/11 22:23:02;;;;;;;3.55;1.17;;;;;;;16.66;63.45;100550.63;10413916;28;20269;-61
2023/12/11 22:28:02;;;;;;;5.13;1.92;;;;;;;16.65;63.42;100553.59;10412709;28;20021;-61
2023/12/11 22:33:03;;;;;;;2.13;1.15;;;;;;;16.64;62.43;100544.75;10413562;28;20128;-61
2023/12/11 22:38:03;;;;;;;4.72;1.27;;;;;;;16.63;63.52;100550.41;10413946;28;20122;-61
2023/12/11 22:43:03;;;;;;;2.87;1.17;;;;;;;16.61;63.34;100557.94;10412872;28;20029;-62
2023/12/11 22:48:04;;;;;;;3.20;0.90;;;;;;;16.61;63.17;100555.25;10411293;28;20734;-60
2023/12/11 22:53:05;;;;;;;2.33;0.90;;;;;;;16.59;62.39;100560.91;10411399;28;20300;-61
2023/12/11 22:58:05;;;;;;;5.78;1.20;;;;;;;16.57;61.88;100552.31;10411766;28;20029;-61
2023/12/11 23:03:05;;;;;;;1.73;1.00;;;;;;;16.56;63.40;100547.25;10412530;28;20022;-60